Time;durP1;ratioP1;P1;durP2;ratioP2;P2;SDS_P1;SDS_P2;PMS_P1;PMS_P2;Temp;Humidity;BMP_temperature;BMP_pressure;BME280_temperature;BME280_humidity;BME280_pressure;Samples;Min_cycle;Max_cycle;Signal;HPM_P1;HPM_P2
2023/10/16 00:00:30;;;;;;;7.80;5.93;;;6.40;99.90;;;;;;6271729;22;20384;-79
2023/10/16 00:03:01;;;;;;;5.50;5.00;;;6.50;99.90;;;;;;6271955;22;20024;-79
2023/10/16 00:05:31;;;;;;;7.97;5.30;;;6.50;99.90;;;;;;6245009;22;20008;-79
2023/10/16 00:07:57;;;;;;;9.40;6.43;;;6.50;99.90;;;;;;6271648;22;20090;-79
2023/10/16 00:10:26;;;;;;;8.70;5.97;;;6.50;99.90;;;;;;6244207;22;20082;-79
2023/10/16 00:12:51;;;;;;;7.60;5.67;;;6.60;99.90;;;;;;6245025;22;20000;-79
2023/10/16 00:15:17;;;;;;;8.50;7.07;;;6.60;99.90;;;;;;6271363;22;20053;-78
2023/10/16 00:17:43;;;;;;;7.63;6.27;;;6.70;99.90;;;;;;6271926;22;20003;-79
2023/10/16 00:20:16;;;;;;;8.53;5.63;;;6.70;99.90;;;;;;6271621;22;19999;-79
2023/10/16 00:22:43;;;;;;;8.03;5.67;;;6.70;99.90;;;;;;6272006;22;20083;-79
2023/10/16 00:25:10;;;;;;;10.97;5.80;;;6.70;99.90;;;;;;6243853;22;20426;-79
2023/10/16 00:27:38;;;;;;;5.77;4.70;;;6.70;99.90;;;;;;6244731;22;20033;-79
2023/10/16 00:30:07;;;;;;;6.80;5.00;;;6.70;99.90;;;;;;6271320;22;19996;-79
2023/10/16 00:32:37;;;;;;;8.40;5.73;;;6.70;99.90;;;;;;6271859;22;19996;-79
2023/10/16 00:35:03;;;;;;;10.03;5.97;;;6.70;99.90;;;;;;6271847;22;20057;-79
2023/10/16 00:37:31;;;;;;;8.37;5.87;;;6.60;99.90;;;;;;6273295;22;20007;-79
2023/10/16 00:39:57;;;;;;;8.57;6.27;;;6.70;99.90;;;;;;6273305;22;20075;-78
2023/10/16 00:42:25;;;;;;;6.63;5.03;;;6.70;99.90;;;;;;6273138;22;20027;-79
2023/10/16 00:44:59;;;;;;;9.83;5.70;;;6.70;99.90;;;;;;6274125;22;20071;-79
2023/10/16 00:47:25;;;;;;;8.53;6.00;;;6.70;99.90;;;;;;6246389;22;19996;-79
2023/10/16 00:49:51;;;;;;;7.50;5.63;;;6.70;99.90;;;;;;6274115;22;20002;-79
2023/10/16 00:52:18;;;;;;;7.33;5.10;;;6.70;99.90;;;;;;6272960;22;20010;-79
2023/10/16 00:54:46;;;;;;;13.20;6.97;;;6.70;99.90;;;;;;6272636;22;20000;-79
2023/10/16 00:57:13;;;;;;;10.20;5.63;;;6.60;99.90;;;;;;6272434;22;19999;-79
2023/10/16 00:59:40;;;;;;;5.83;5.23;;;6.60;99.90;;;;;;6273344;22;20143;-80
2023/10/16 01:02:15;;;;;;;8.57;5.07;;;6.60;99.90;;;;;;6273166;22;19995;-79
2023/10/16 01:04:42;;;;;;;12.90;7.80;;;6.60;99.90;;;;;;6273804;22;20053;-80
2023/10/16 01:07:08;;;;;;;6.30;5.17;;;6.60;99.90;;;;;;6273002;22;20082;-79
2023/10/16 01:09:39;;;;;;;6.20;4.90;;;6.50;99.90;;;;;;6272779;22;20000;-79
2023/10/16 01:12:09;;;;;;;6.87;4.97;;;6.50;99.90;;;;;;6273213;22;20000;-80
2023/10/16 01:14:35;;;;;;;6.93;4.90;;;6.50;99.90;;;;;;6273842;22;20003;-80
2023/10/16 01:17:12;;;;;;;7.43;5.07;;;6.50;99.90;;;;;;6273339;22;20038;-79
2023/10/16 01:19:44;;;;;;;6.07;5.20;;;6.50;99.90;;;;;;6273627;22;20039;-79
2023/10/16 01:22:13;;;;;;;9.13;5.00;;;6.50;99.90;;;;;;6272576;22;20077;-79
2023/10/16 01:24:43;;;;;;;10.37;6.10;;;6.40;99.90;;;;;;6273200;22;20078;-78
2023/10/16 01:27:14;;;;;;;7.80;5.20;;;6.40;99.90;;;;;;6272842;22;20440;-79
2023/10/16 01:29:40;;;;;;;9.17;5.43;;;6.40;99.90;;;;;;6273378;22;20421;-78
2023/10/16 01:32:07;;;;;;;7.33;5.40;;;6.40;99.90;;;;;;6273031;22;20026;-78
2023/10/16 01:34:34;;;;;;;8.77;5.27;;;6.40;99.90;;;;;;6246127;22;20057;-79
2023/10/16 01:37:08;;;;;;;7.07;4.97;;;6.30;99.90;;;;;;6272515;22;20450;-78
2023/10/16 01:39:49;;;;;;;9.57;5.88;;;6.40;99.90;;;;;;6273310;22;20015;-79
2023/10/16 01:42:18;;;;;;;9.17;5.10;;;6.40;99.90;;;;;;6272730;22;20438;-79
2023/10/16 01:44:47;;;;;;;7.37;5.43;;;6.40;99.90;;;;;;6273389;22;20057;-79
2023/10/16 01:47:15;;;;;;;6.90;5.93;;;6.50;99.90;;;;;;6272559;22;20011;-79
2023/10/16 01:49:42;;;;;;;7.20;6.23;;;6.60;99.90;;;;;;6273059;22;20061;-78
2023/10/16 01:52:14;;;;;;;9.67;6.03;;;6.70;99.90;;;;;;6272179;22;19999;-79
2023/10/16 01:54:45;;;;;;;8.27;6.37;;;6.70;99.90;;;;;;6273027;22;19995;-78
2023/10/16 01:57:12;;;;;;;8.67;6.73;;;6.70;99.90;;;;;;6245235;22;20014;-78
2023/10/16 01:59:39;;;;;;;9.23;6.30;;;6.80;99.90;;;;;;6272927;22;20069;-80
2023/10/16 02:02:05;;;;;;;14.07;7.30;;;6.80;99.90;;;;;;6272458;22;20069;-79
2023/10/16 02:04:30;;;;;;;9.37;6.20;;;6.90;99.90;;;;;;6273137;22;20441;-79
2023/10/16 02:06:56;;;;;;;9.37;6.70;;;6.90;99.90;;;;;;6272211;22;20012;-79
2023/10/16 02:09:24;;;;;;;9.20;5.70;;;6.80;99.90;;;;;;6272386;22;20425;-78
2023/10/16 02:11:51;;;;;;;12.67;6.10;;;6.90;99.90;;;;;;6273037;22;20006;-79
2023/10/16 02:14:16;;;;;;;7.47;5.57;;;6.90;99.90;;;;;;6272257;22;20000;-79
2023/10/16 02:16:42;;;;;;;6.70;5.50;;;6.90;99.90;;;;;;6273075;22;20144;-79
2023/10/16 02:19:07;;;;;;;8.77;6.63;;;6.90;99.90;;;;;;6272885;22;20330;-79
2023/10/16 02:21:33;;;;;;;8.07;5.50;;;7.00;99.90;;;;;;6272387;22;19997;-80
2023/10/16 02:24:03;;;;;;;7.97;5.73;;;7.00;99.90;;;;;;6272880;22;20008;-79
2023/10/16 02:26:30;;;;;;;9.60;5.90;;;7.10;99.90;;;;;;6272857;22;20007;-78
2023/10/16 02:29:00;;;;;;;7.40;5.90;;;7.20;99.90;;;;;;6272734;22;20422;-79
2023/10/16 02:31:25;;;;;;;6.73;6.03;;;7.20;99.90;;;;;;6272592;22;20006;-79
2023/10/16 02:33:54;;;;;;;8.43;6.27;;;7.10;99.90;;;;;;6272950;22;20028;-78
2023/10/16 02:36:21;;;;;;;7.23;5.63;;;7.20;99.90;;;;;;6271734;22;20031;-79
2023/10/16 02:38:50;;;;;;;9.47;5.93;;;7.20;99.90;;;;;;6272548;22;20380;-78
2023/10/16 02:41:19;;;;;;;7.33;5.10;;;7.20;99.90;;;;;;6271729;22;19999;-79
2023/10/16 02:43:46;;;;;;;10.43;5.03;;;7.20;99.90;;;;;;6272606;22;19999;-78
2023/10/16 02:46:13;;;;;;;8.30;6.10;;;7.20;99.90;;;;;;6244956;22;20333;-78
2023/10/16 02:48:42;;;;;;;10.03;5.40;;;7.30;99.90;;;;;;6272686;22;20671;-79
2023/10/16 02:51:09;;;;;;;10.23;5.07;;;7.30;99.90;;;;;;6244788;22;20057;-79
2023/10/16 02:53:36;;;;;;;10.53;5.33;;;7.40;99.90;;;;;;6272441;22;19996;-79
2023/10/16 02:56:05;;;;;;;11.77;6.50;;;7.40;99.90;;;;;;6272084;22;20031;-79
2023/10/16 02:58:32;;;;;;;11.00;7.10;;;7.40;99.90;;;;;;6272069;22;20329;-79
2023/10/16 03:00:59;;;;;;;8.30;5.90;;;7.40;99.90;;;;;;6271874;22;20015;-79
2023/10/16 03:03:26;;;;;;;5.93;4.77;;;7.40;99.90;;;;;;6271248;22;20010;-79
2023/10/16 03:05:53;;;;;;;8.53;5.07;;;7.50;99.90;;;;;;6272567;22;20004;-79
2023/10/16 03:08:21;;;;;;;9.10;6.20;;;7.40;99.90;;;;;;6244351;22;20341;-79
2023/10/16 03:10:51;;;;;;;11.77;6.03;;;7.40;99.90;;;;;;6245452;22;20023;-79
2023/10/16 03:13:18;;;;;;;8.90;4.87;;;7.30;99.90;;;;;;6272071;22;19999;-79
2023/10/16 03:15:46;;;;;;;10.40;5.73;;;7.30;99.90;;;;;;6245456;22;20075;-79
2023/10/16 03:18:17;;;;;;;5.87;4.43;;;7.20;99.90;;;;;;6271134;22;19999;-79
2023/10/16 03:20:46;;;;;;;10.60;5.33;;;7.20;99.90;;;;;;6272062;22;20419;-79
2023/10/16 03:23:13;;;;;;;8.43;5.00;;;7.10;99.90;;;;;;6242804;22;20007;-79
2023/10/16 03:28:08;;;;;;;5.93;5.07;;;7.00;99.90;;;;;;6272198;22;20425;-79
2023/10/16 03:30:34;;;;;;;10.37;6.00;;;7.00;99.90;;;;;;6270507;22;20030;-79
2023/10/16 03:33:03;;;;;;;8.13;5.13;;;6.90;99.90;;;;;;6271592;22;20003;-79
2023/10/16 03:35:32;;;;;;;9.17;4.97;;;6.90;99.90;;;;;;6271867;22;20045;-79
2023/10/16 03:37:58;;;;;;;8.93;4.77;;;6.90;99.90;;;;;;6245022;22;20022;-79
2023/10/16 03:40:27;;;;;;;8.70;6.00;;;7.00;99.90;;;;;;6271547;22;20000;-79
2023/10/16 03:42:56;;;;;;;8.53;5.43;;;7.00;99.90;;;;;;6245655;22;20007;-79
2023/10/16 03:45:21;;;;;;;9.57;5.80;;;7.00;99.90;;;;;;6244566;22;20206;-78
2023/10/16 03:47:51;;;;;;;11.47;6.03;;;7.10;99.90;;;;;;6244881;22;20012;-79
2023/10/16 03:50:25;;;;;;;7.93;5.50;;;7.20;99.90;;;;;;6271744;22;20000;-79
2023/10/16 03:52:54;;;;;;;7.97;4.78;;;7.20;99.90;;;;;;6245238;22;20372;-79
2023/10/16 03:55:24;;;;;;;7.57;6.17;;;7.30;99.90;;;;;;6244061;22;20035;-79
2023/10/16 03:57:50;;;;;;;10.17;5.77;;;7.30;99.90;;;;;;6272620;22;20003;-79
2023/10/16 04:00:18;;;;;;;8.83;5.07;;;7.30;99.90;;;;;;6244567;22;20012;-79
2023/10/16 04:02:46;;;;;;;11.70;6.00;;;7.40;99.90;;;;;;6271649;22;20000;-79
2023/10/16 04:05:33;;;;;;;8.23;5.83;;;7.40;99.90;;;;;;6271858;22;20003;-79
2023/10/16 04:07:59;;;;;;;7.07;4.63;;;7.40;99.90;;;;;;6271708;22;20329;-79
2023/10/16 04:10:29;;;;;;;10.80;6.37;;;7.40;99.90;;;;;;6244304;22;20082;-79
2023/10/16 04:12:55;;;;;;;8.87;5.10;;;7.50;99.90;;;;;;6273999;22;19996;-79
2023/10/16 04:18:09;;;;;;;;;;;7.50;99.90;;;;;;6273980;22;20010;-79
2023/10/16 04:20:44;;;;;;;7.13;4.97;;;7.50;99.90;;;;;;6246766;22;20305;-80
2023/10/16 04:34:24;;;;;;;10.20;4.82;;;7.60;99.90;;;;;;6274112;22;20662;-79
2023/10/16 04:36:54;;;;;;;10.50;4.97;;;7.70;99.90;;;;;;6273541;22;20054;-79
2023/10/16 04:50:29;;;;;;;5.07;4.57;;;7.80;99.90;;;;;;6283745;22;20326;-80
2023/10/16 05:00:57;;;;;;;10.57;5.40;;;7.90;99.90;;;;;;6283764;22;20064;-79
2023/10/16 05:11:24;;;;;;;10.80;7.20;;;8.00;99.90;;;;;;6283581;22;20053;-79
2023/10/16 05:14:19;;;;;;;6.50;5.37;;;8.00;99.90;;;;;;6273003;22;20007;-79
2023/10/16 05:16:53;;;;;;;8.57;5.97;;;8.10;99.90;;;;;;6273095;22;20011;-79
2023/10/16 06:14:14;;;;;;;8.73;6.40;;;8.20;99.90;;;;;;6272590;22;20041;-79
2023/10/16 06:16:47;;;;;;;8.73;5.43;;;8.20;99.90;;;;;;6272500;22;20007;-79
2023/10/16 06:19:19;;;;;;;10.80;5.85;;;8.30;99.90;;;;;;6272751;22;20010;-79
2023/10/16 06:21:57;;;;;;;9.07;5.93;;;8.30;99.90;;;;;;6272966;22;20010;-79
2023/10/16 06:24:35;;;;;;;12.00;6.83;;;8.20;99.90;;;;;;6272514;22;20375;-79
2023/10/16 06:27:11;;;;;;;9.03;6.50;;;8.30;99.90;;;;;;6272142;22;20073;-79
2023/10/16 06:29:49;;;;;;;9.47;5.87;;;8.30;99.90;;;;;;6272468;22;20082;-79
2023/10/16 06:32:18;;;;;;;10.10;6.33;;;8.30;99.90;;;;;;6272729;22;20000;-79
2023/10/16 06:34:52;;;;;;;13.73;5.90;;;8.30;99.90;;;;;;6272560;22;19996;-79
2023/10/16 06:37:18;;;;;;;9.38;6.25;;;8.30;99.90;;;;;;6272124;22;20077;-78
2023/10/16 06:39:45;;;;;;;13.63;6.17;;;8.30;99.90;;;;;;6272559;22;20007;-79
2023/10/16 06:42:17;;;;;;;10.80;6.43;;;8.30;99.90;;;;;;6244891;22;20571;-71
2023/10/16 06:44:53;;;;;;;13.07;6.47;;;8.30;99.90;;;;;;6271112;22;20449;-72
2023/10/16 06:47:23;;;;;;;11.00;6.20;;;8.40;99.90;;;;;;6271552;22;20421;-72
2023/10/16 06:49:50;;;;;;;14.83;7.50;;;8.40;99.90;;;;;;6271691;22;20000;-71
2023/10/16 06:52:17;;;;;;;10.30;7.40;;;8.40;99.90;;;;;;6271739;22;20067;-72
2023/10/16 06:54:44;;;;;;;8.60;6.87;;;8.40;99.90;;;;;;6271800;22;19996;-72
2023/10/16 06:57:13;;;;;;;13.27;6.80;;;8.40;99.90;;;;;;6271181;22;20025;-71
2023/10/16 06:59:46;;;;;;;11.13;7.50;;;8.40;99.90;;;;;;6271151;22;20824;-71
2023/10/16 07:02:21;;;;;;;9.80;6.87;;;8.40;99.90;;;;;;6271665;22;20003;-72
2023/10/16 07:04:47;;;;;;;10.40;6.97;;;8.40;99.90;;;;;;6271799;22;20475;-71
2023/10/16 07:07:17;;;;;;;10.70;7.43;;;8.40;99.90;;;;;;6271641;22;19999;-72
2023/10/16 07:09:49;;;;;;;11.07;7.70;;;8.40;99.90;;;;;;6271655;22;20004;-71
2023/10/16 07:12:19;;;;;;;8.73;6.80;;;8.40;99.90;;;;;;6271791;22;20000;-71
2023/10/16 07:14:55;;;;;;;10.30;7.90;;;8.40;99.90;;;;;;6271057;22;20372;-72
2023/10/16 07:17:30;;;;;;;11.30;7.73;;;8.40;99.90;;;;;;6271659;22;20053;-72
2023/10/16 07:19:59;;;;;;;8.90;7.23;;;8.50;99.90;;;;;;6271735;22;20003;-71
2023/10/16 07:22:31;;;;;;;7.90;6.93;;;8.50;99.90;;;;;;6271349;22;20011;-72
2023/10/16 07:25:23;;;;;;;15.77;7.73;;;8.60;99.90;;;;;;6271283;22;20007;-71
2023/10/16 07:27:49;;;;;;;11.77;8.40;;;8.60;99.90;;;;;;6271300;22;20003;-71
2023/10/16 07:30:25;;;;;;;11.20;7.97;;;8.70;99.90;;;;;;6271620;22;20007;-71
2023/10/16 07:32:51;;;;;;;11.23;8.10;;;8.70;99.90;;;;;;6271429;22;19999;-71
2023/10/16 07:35:21;;;;;;;15.70;8.40;;;8.70;99.90;;;;;;6271818;22;20010;-72
2023/10/16 07:37:53;;;;;;;13.73;7.93;;;8.70;99.90;;;;;;6272075;22;20011;-71
2023/10/16 07:40:25;;;;;;;11.57;7.97;;;8.80;99.90;;;;;;6243586;22;20430;-71
2023/10/16 07:42:55;;;;;;;11.40;7.77;;;8.80;99.90;;;;;;6271897;22;20078;-71
2023/10/16 07:45:20;;;;;;;10.07;7.93;;;8.80;99.90;;;;;;6244349;22;20429;-71
2023/10/16 07:47:48;;;;;;;11.77;8.27;;;8.80;99.90;;;;;;6273910;22;20004;-72
2023/10/16 07:50:15;;;;;;;9.57;8.50;;;8.80;99.90;;;;;;6273957;22;20010;-72
2023/10/16 07:52:42;;;;;;;15.33;9.17;;;8.90;99.90;;;;;;6274191;22;19999;-72
2023/10/16 07:55:17;;;;;;;10.63;8.30;;;9.00;99.90;;;;;;6273672;22;20006;-71
2023/10/16 07:57:43;;;;;;;12.40;8.23;;;9.00;99.90;;;;;;6247025;22;20008;-72
2023/10/16 08:00:13;;;;;;;13.53;9.40;;;9.00;99.90;;;;;;6246158;22;20077;-72
2023/10/16 08:02:45;;;;;;;12.20;8.30;;;9.10;99.90;;;;;;6273719;22;20011;-71
2023/10/16 08:05:15;;;;;;;9.67;7.87;;;9.10;99.90;;;;;;6273812;22;20023;-72
2023/10/16 08:07:47;;;;;;;9.87;8.60;;;9.20;99.90;;;;;;6273737;22;20463;-72
2023/10/16 08:10:28;;;;;;;13.87;7.93;;;9.30;99.90;;;;;;6273433;22;20424;-72
2023/10/16 08:12:54;;;;;;;13.03;9.00;;;9.30;99.90;;;;;;6273812;22;19995;-72
2023/10/16 08:15:21;;;;;;;11.83;8.60;;;9.30;99.90;;;;;;6273642;22;20010;-72
2023/10/16 08:17:47;;;;;;;9.52;8.57;;;9.40;99.90;;;;;;6273056;22;20370;-71
2023/10/16 08:20:20;;;;;;;12.67;8.40;;;9.50;99.90;;;;;;6246926;22;20010;-72
2023/10/16 08:22:46;;;;;;;9.37;8.43;;;9.60;99.90;;;;;;6272294;22;20008;-72
2023/10/16 08:25:30;;;;;;;11.55;9.30;;;9.60;99.90;;;;;;6273199;22;20417;-72
2023/10/16 08:27:58;;;;;;;10.00;8.10;;;9.70;99.90;;;;;;6273335;22;20003;-72
2023/10/16 08:30:49;;;;;;;13.00;8.77;;;9.80;99.90;;;;;;6273276;22;20418;-72
2023/10/16 08:33:18;;;;;;;10.90;8.25;;;9.80;99.90;;;;;;6273625;22;19999;-72
2023/10/16 08:35:45;;;;;;;11.38;9.13;;;9.90;99.90;;;;;;6273332;22;19996;-72
2023/10/16 08:38:20;;;;;;;11.88;8.60;;;10.00;99.90;;;;;;6272656;22;20425;-72
2023/10/16 08:40:57;;;;;;;10.90;9.00;;;10.00;99.90;;;;;;6273560;22;20004;-72
2023/10/16 08:43:39;;;;;;;11.23;7.90;;;10.10;99.90;;;;;;6273579;22;20000;-72
2023/10/16 08:46:18;;;;;;;9.13;7.85;;;10.10;99.90;;;;;;6273509;22;20003;-72
2023/10/16 08:48:45;;;;;;;12.40;8.90;;;10.10;99.90;;;;;;6273411;22;20360;-72
2023/10/16 08:51:12;;;;;;;11.60;7.95;;;10.20;99.90;;;;;;6272525;22;20425;-72
2023/10/16 08:53:38;;;;;;;10.18;7.75;;;10.20;99.90;;;;;;6272409;22;20000;-73
2023/10/16 08:56:08;;;;;;;9.38;7.10;;;10.30;99.90;;;;;;6273449;22;20102;-72
2023/10/16 08:58:39;;;;;;;9.95;8.15;;;10.40;99.90;;;;;;6273017;22;19996;-73
2023/10/16 09:01:09;;;;;;;11.40;7.93;;;10.50;99.90;;;;;;6246366;22;19999;-72
2023/10/16 09:04:05;;;;;;;7.25;6.53;;;10.60;99.90;;;;;;6273291;22;20000;-72
2023/10/16 09:06:34;;;;;;;8.85;7.70;;;10.60;99.90;;;;;;6244576;22;20013;-73
2023/10/16 09:09:11;;;;;;;10.43;6.85;;;10.60;99.90;;;;;;6273074;22;20079;-73
2023/10/16 09:11:39;;;;;;;11.40;7.25;;;10.70;99.90;;;;;;6275479;22;19995;-72
2023/10/16 09:14:07;;;;;;;9.90;6.95;;;10.80;99.90;;;;;;6273544;22;19995;-72
2023/10/16 09:16:34;;;;;;;12.55;7.38;;;10.80;99.90;;;;;;6273030;22;20070;-71
2023/10/16 09:19:02;;;;;;;9.57;6.60;;;10.80;99.90;;;;;;6246480;22;20007;-72
2023/10/16 09:21:28;;;;;;;7.90;6.05;;;10.80;99.90;;;;;;6273100;22;20004;-71
2023/10/16 09:24:00;;;;;;;7.50;6.75;;;10.80;99.90;;;;;;6271908;22;20073;-71
2023/10/16 09:26:32;;;;;;;9.35;6.80;;;10.90;99.90;;;;;;6272895;22;20087;-72
2023/10/16 09:29:04;;;;;;;8.15;6.95;;;11.00;99.90;;;;;;6273531;22;20000;-72
2023/10/16 09:31:31;;;;;;;6.70;5.28;;;11.10;99.90;;;;;;6273021;22;20007;-71
2023/10/16 09:33:57;;;;;;;6.45;5.60;;;11.20;99.90;;;;;;6273329;22;20421;-72
2023/10/16 09:36:22;;;;;;;8.63;5.82;;;11.30;99.90;;;;;;6272216;22;20007;-72
2023/10/16 09:38:54;;;;;;;6.68;4.00;;;11.40;99.90;;;;;;6272849;22;20071;-72
2023/10/16 09:43:56;;;;;;;6.07;3.88;;;11.70;99.90;;;;;;6283414;22;20012;-72
2023/10/16 09:49:21;;;;;;;6.88;3.05;;;11.80;99.90;;;;;;6283030;22;20000;-71
2023/10/16 09:51:47;;;;;;;3.78;2.05;;;11.80;99.90;;;;;;6272695;22;20004;-72
2023/10/16 09:54:14;;;;;;;5.03;1.80;;;11.80;99.90;;;;;;6272634;22;20078;-72
2023/10/16 09:56:44;;;;;;;3.28;2.20;;;11.90;99.90;;;;;;6272374;22;20007;-72
2023/10/16 09:59:17;;;;;;;5.05;2.53;;;11.90;99.90;;;;;;6272925;22;20054;-72
2023/10/16 10:01:44;;;;;;;3.22;1.85;;;12.10;99.90;;;;;;6272257;22;20000;-72
2023/10/16 10:04:11;;;;;;;4.93;1.80;;;12.20;99.90;;;;;;6245111;22;20314;-72
2023/10/16 10:06:41;;;;;;;2.88;1.70;;;12.30;99.90;;;;;;6272387;22;20420;-71
2023/10/16 10:12:14;;;;;;;4.80;2.30;;;12.30;99.90;;;;;;6282471;22;20043;-72
2023/10/16 10:14:49;;;;;;;6.75;1.83;;;12.40;99.90;;;;;;6245115;22;20010;-71
2023/10/16 10:17:20;;;;;;;5.03;1.80;;;12.50;99.90;;;;;;6272510;22;20004;-72
2023/10/16 10:19:54;;;;;;;3.38;1.85;;;12.50;99.90;;;;;;6271724;22;20413;-71
2023/10/16 10:22:27;;;;;;;5.80;1.75;;;12.50;99.90;;;;;;6272607;22;20032;-72
2023/10/16 10:25:22;;;;;;;4.18;1.65;;;12.50;99.90;;;;;;6272319;22;19999;-71
2023/10/16 10:27:49;;;;;;;3.55;1.65;;;12.50;99.90;;;;;;6271968;22;20372;-72
2023/10/16 10:30:25;;;;;;;3.65;1.15;;;12.50;99.90;;;;;;6271909;22;19996;-72
2023/10/16 10:32:55;;;;;;;6.90;1.20;;;12.50;99.90;;;;;;6271427;22;20003;-72
2023/10/16 10:35:38;;;;;;;2.15;1.48;;;12.50;99.90;;;;;;6271959;22;20066;-71
2023/10/16 10:38:17;;;;;;;3.75;1.35;;;12.50;99.90;;;;;;6272384;22;20318;-72
2023/10/16 10:41:12;;;;;;;3.28;1.50;;;12.50;99.90;;;;;;6271884;22;19996;-72
2023/10/16 10:43:48;;;;;;;3.47;1.40;;;12.50;99.90;;;;;;6271807;22;20375;-72
2023/10/16 10:46:28;;;;;;;3.13;1.20;;;12.50;99.90;;;;;;6272132;22;20045;-72
2023/10/16 10:48:54;;;;;;;3.38;1.45;;;12.50;99.90;;;;;;6271470;22;19995;-72
2023/10/16 10:51:21;;;;;;;4.30;1.15;;;12.50;99.90;;;;;;6272103;22;20010;-72
2023/10/16 10:53:58;;;;;;;4.43;1.50;;;12.50;99.90;;;;;;6271630;22;19996;-72
2023/10/16 10:56:38;;;;;;;3.92;1.23;;;12.50;99.90;;;;;;6271396;22;20010;-72
2023/10/16 10:59:09;;;;;;;5.75;1.35;;;12.50;99.90;;;;;;6272079;22;20004;-72
2023/10/16 11:01:37;;;;;;;4.80;1.10;;;12.50;99.90;;;;;;6244110;22;20337;-72
2023/10/16 11:04:15;;;;;;;1.90;1.10;;;12.60;99.90;;;;;;6271683;22;20010;-72
2023/10/16 11:06:52;;;;;;;2.75;1.17;;;12.60;99.90;;;;;;6269635;22;20014;-72
2023/10/16 11:09:21;;;;;;;3.72;1.02;;;12.70;99.90;;;;;;6271984;22;20023;-71
2023/10/16 11:11:51;;;;;;;1.83;1.15;;;12.70;99.90;;;;;;6271314;22;20054;-71
2023/10/16 11:14:16;;;;;;;5.43;1.20;;;12.80;99.90;;;;;;6272187;22;20053;-72
2023/10/16 11:16:48;;;;;;;3.42;1.13;;;12.90;99.90;;;;;;6271066;22;20429;-72
2023/10/16 11:19:27;;;;;;;4.35;0.90;;;13.00;99.90;;;;;;6272052;22;20425;-72
2023/10/16 11:21:55;;;;;;;2.88;0.88;;;13.00;99.90;;;;;;6271602;22;20007;-71
2023/10/16 11:24:24;;;;;;;2.38;0.63;;;13.10;99.90;;;;;;6271755;22;20330;-72
2023/10/16 11:26:58;;;;;;;2.20;0.80;;;13.10;99.90;;;;;;6271764;22;20039;-72
2023/10/16 11:29:33;;;;;;;2.45;0.70;;;13.20;99.90;;;;;;6271218;22;20000;-72
2023/10/16 11:32:06;;;;;;;3.60;0.68;;;13.20;99.90;;;;;;6271623;22;20007;-72
2023/10/16 11:34:44;;;;;;;1.85;0.68;;;13.20;99.90;;;;;;6271573;22;20020;-72
2023/10/16 11:37:12;;;;;;;2.22;0.73;;;13.30;99.90;;;;;;6271205;22;20004;-72
2023/10/16 11:39:38;;;;;;;4.90;0.73;;;13.30;99.90;;;;;;6270994;22;20091;-72
2023/10/16 11:42:04;;;;;;;3.70;0.50;;;13.30;99.90;;;;;;6244822;22;20039;-72
2023/10/16 11:44:33;;;;;;;1.65;0.40;;;13.40;99.90;;;;;;6271314;22;20026;-72
2023/10/16 11:47:03;;;;;;;3.08;0.70;;;13.40;99.90;;;;;;6271355;22;20061;-72
2023/10/16 11:49:39;;;;;;;2.08;0.90;;;13.40;99.90;;;;;;6271503;22;20000;-72
2023/10/16 11:52:08;;;;;;;2.70;0.60;;;13.40;99.90;;;;;;6272127;22;20325;-72
2023/10/16 11:54:35;;;;;;;2.00;0.65;;;13.40;99.90;;;;;;6270736;22;20003;-72
2023/10/16 11:57:00;;;;;;;4.25;0.93;;;13.40;99.90;;;;;;6244578;22;20049;-72
2023/10/16 11:59:28;;;;;;;1.02;0.50;;;13.40;99.90;;;;;;6271044;22;20011;-72
2023/10/16 12:01:59;;;;;;;2.10;0.50;;;13.40;99.90;;;;;;6271504;22;20000;-72
2023/10/16 12:04:26;;;;;;;3.42;0.38;;;13.40;99.90;;;;;;6271557;22;19999;-72
2023/10/16 12:06:52;;;;;;;2.63;0.47;;;13.50;99.90;;;;;;6271352;22;20333;-72
2023/10/16 12:09:21;;;;;;;2.85;0.47;;;13.50;99.90;;;;;;6271875;22;20379;-72
2023/10/16 12:11:49;;;;;;;2.83;0.30;;;13.50;99.90;;;;;;6271501;22;20421;-72
2023/10/16 12:14:15;;;;;;;3.80;0.43;;;13.40;99.90;;;;;;6271845;22;20000;-72
2023/10/16 12:16:44;;;;;;;4.60;0.43;;;13.50;99.90;;;;;;6270402;22;20500;-72
2023/10/16 12:19:11;;;;;;;1.65;0.70;;;13.60;99.90;;;;;;6270789;22;20064;-73
2023/10/16 12:21:37;;;;;;;2.15;0.30;;;13.60;99.90;;;;;;6271099;22;20000;-72
2023/10/16 12:24:04;;;;;;;4.68;0.70;;;13.60;99.90;;;;;;6271499;22;20014;-72
2023/10/16 12:26:30;;;;;;;2.53;0.40;;;13.70;99.90;;;;;;6244182;22;20340;-72
2023/10/16 12:28:59;;;;;;;2.10;0.38;;;13.70;99.90;;;;;;6270961;22;20000;-72
2023/10/16 12:31:25;;;;;;;2.88;0.40;;;13.60;99.90;;;;;;6271340;22;20061;-72
2023/10/16 12:33:51;;;;;;;1.75;0.30;;;13.60;99.90;;;;;;6273199;22;20035;-72
2023/10/16 12:36:18;;;;;;;1.38;0.40;;;13.60;99.90;;;;;;6273441;22;20003;-72
2023/10/16 12:38:44;;;;;;;3.33;0.60;;;13.60;99.90;;;;;;6272810;22;20129;-72
2023/10/16 12:41:10;;;;;;;2.90;0.50;;;13.60;99.90;;;;;;6272911;22;20010;-72
2023/10/16 12:43:36;;;;;;;1.13;0.40;;;13.60;99.90;;;;;;6272408;22;20004;-72
2023/10/16 12:46:03;;;;;;;2.83;0.50;;;13.50;99.90;;;;;;6273264;22;20049;-72
2023/10/16 12:48:29;;;;;;;4.75;0.35;;;13.50;99.90;;;;;;6273293;22;20050;-72
2023/10/16 12:50:59;;;;;;;1.58;0.40;;;13.50;99.90;;;;;;6273253;22;20000;-72
2023/10/16 12:53:26;;;;;;;1.77;0.38;;;13.50;99.90;;;;;;6273477;22;20004;-72
2023/10/16 12:55:55;;;;;;;1.25;0.60;;;13.50;99.90;;;;;;6273268;22;20053;-72
2023/10/16 12:58:22;;;;;;;1.83;0.70;;;13.50;99.90;;;;;;6272835;22;20014;-72
2023/10/16 13:00:50;;;;;;;1.95;0.50;;;13.50;99.90;;;;;;6272832;22;20007;-72
2023/10/16 13:03:19;;;;;;;2.33;0.30;;;13.60;99.90;;;;;;6272963;22;20004;-72
2023/10/16 13:05:45;;;;;;;2.90;0.50;;;13.60;99.90;;;;;;6272939;22;20152;-72
2023/10/16 13:08:11;;;;;;;2.05;0.40;;;13.60;99.90;;;;;;6272852;22;20061;-72
2023/10/16 13:10:37;;;;;;;1.17;0.47;;;13.60;99.90;;;;;;6273314;22;19999;-72
2023/10/16 13:13:03;;;;;;;2.60;0.77;;;13.70;99.90;;;;;;6272217;22;19999;-72
2023/10/16 13:15:29;;;;;;;2.53;0.55;;;13.70;99.90;;;;;;6273166;22;20029;-71
2023/10/16 13:17:55;;;;;;;2.88;0.40;;;13.70;99.90;;;;;;6273246;22;20090;-71
2023/10/16 13:20:26;;;;;;;2.92;0.70;;;13.80;99.90;;;;;;6272907;22;20097;-71
2023/10/16 13:22:52;;;;;;;2.53;0.60;;;13.90;99.90;;;;;;6272972;22;20003;-72
2023/10/16 13:25:23;;;;;;;2.33;0.52;;;13.90;99.90;;;;;;6273268;22;20003;-72
2023/10/16 13:27:49;;;;;;;4.80;0.47;;;14.00;99.90;;;;;;6272003;22;20074;-71
2023/10/16 13:30:18;;;;;;;1.90;0.50;;;14.00;99.90;;;;;;6272676;22;20422;-71
2023/10/16 13:32:48;;;;;;;2.33;0.50;;;14.00;99.90;;;;;;6272383;22;20440;-72
2023/10/16 13:35:18;;;;;;;3.17;0.40;;;14.00;99.90;;;;;;6273409;22;20003;-72
2023/10/16 13:37:48;;;;;;;3.22;0.35;;;14.00;99.90;;;;;;6272627;22;20137;-72
2023/10/16 13:40:22;;;;;;;2.50;0.55;;;14.00;99.90;;;;;;6273472;22;20322;-71
2023/10/16 13:42:49;;;;;;;5.10;0.82;;;14.00;99.90;;;;;;6271914;22;20007;-72
2023/10/16 13:45:15;;;;;;;1.92;0.50;;;13.90;99.90;;;;;;6272137;22;20000;-72
2023/10/16 13:47:43;;;;;;;2.28;0.50;;;13.90;99.90;;;;;;6272237;22;20034;-72
2023/10/16 13:50:10;;;;;;;2.00;0.60;;;14.00;99.90;;;;;;6272671;22;20006;-72
2023/10/16 13:52:36;;;;;;;2.25;0.50;;;13.90;99.80;;;;;;6272708;22;20273;-73
2023/10/16 13:55:11;;;;;;;3.03;0.70;;;13.90;99.90;;;;;;6272890;22;20007;-72
2023/10/16 13:57:39;;;;;;;2.85;0.40;;;14.00;99.90;;;;;;6245158;22;20007;-72
2023/10/16 14:00:06;;;;;;;5.38;0.47;;;14.00;99.90;;;;;;6272553;22;20330;-72
2023/10/16 14:02:36;;;;;;;1.83;0.40;;;14.00;99.90;;;;;;6272240;22;20372;-72
2023/10/16 14:05:06;;;;;;;1.17;0.30;;;14.00;99.90;;;;;;6272743;22;20004;-72
2023/10/16 14:07:32;;;;;;;1.27;0.47;;;14.00;99.90;;;;;;6272095;22;20449;-72
2023/10/16 14:09:57;;;;;;;2.05;0.55;;;14.00;99.90;;;;;;6272783;22;20010;-72
2023/10/16 14:12:25;;;;;;;3.03;0.40;;;14.00;99.80;;;;;;6272044;22;20003;-72
2023/10/16 14:14:51;;;;;;;3.47;0.65;;;13.90;99.80;;;;;;6272285;22;20079;-72
2023/10/16 14:17:18;;;;;;;3.45;0.65;;;13.90;99.70;;;;;;6272046;22;20008;-72
2023/10/16 14:19:53;;;;;;;2.97;0.50;;;13.90;99.70;;;;;;6271708;22;20004;-72
2023/10/16 14:22:23;;;;;;;3.53;0.43;;;13.90;99.70;;;;;;6272677;22;20479;-72
2023/10/16 14:24:48;;;;;;;3.45;0.60;;;13.90;99.60;;;;;;6272124;22;20054;-72
2023/10/16 14:27:24;;;;;;;3.00;0.50;;;13.90;99.70;;;;;;6271916;22;20008;-72
2023/10/16 14:29:54;;;;;;;5.93;0.93;;;13.90;99.70;;;;;;6272417;22;20034;-72
2023/10/16 14:32:20;;;;;;;1.98;0.57;;;13.90;99.50;;;;;;6245322;22;20060;-72
2023/10/16 14:34:46;;;;;;;3.83;0.55;;;13.90;99.60;;;;;;6272238;22;20066;-72
2023/10/16 14:37:13;;;;;;;5.20;1.00;;;13.80;99.60;;;;;;6272206;22;20329;-72
2023/10/16 14:39:39;;;;;;;2.20;0.85;;;13.80;99.40;;;;;;6271356;22;20094;-72
2023/10/16 14:42:05;;;;;;;2.33;0.60;;;13.80;99.70;;;;;;6245315;22;20004;-72
2023/10/16 14:44:31;;;;;;;1.48;0.40;;;13.80;99.80;;;;;;6272271;22;20010;-72
2023/10/16 14:46:57;;;;;;;2.35;0.82;;;13.80;99.60;;;;;;6272523;22;20090;-72
2023/10/16 14:49:26;;;;;;;2.63;0.70;;;13.90;99.50;;;;;;6272250;22;19996;-72